<?xml version="1.0" encoding="UTF-8"?>
<gpx xmlns="http://www.topografix.com/GPX/1/1" xmlns:xsi="http://www.w3.org/2001/XMLSchema-instance" version="1.1" xsi:schemaLocation="http://www.topografix.com/GPX/1/1 http://www.topografix.com/GPX/1/1/gpx.xsd">
  <metadata>
    <name>Territorial Triathlon 2022</name>
  </metadata>
  <trk>
    <name>Territorial Triathlon 2022</name>
    <trkseg>
      <trkpt lat="35.812419" lon="-97.44168">
        <ele>304.353714</ele>
        <time>2024-07-20T07:30:00.000Z</time>
      </trkpt>
      <trkpt lat="35.812433" lon="-97.442042">
        <ele>304.353712</ele>
        <time>2024-07-20T07:30:03.000Z</time>
      </trkpt>
      <trkpt lat="35.812296" lon="-97.442363">
        <ele>304.353702</ele>
        <time>2024-07-20T07:30:06.000Z</time>
      </trkpt>
      <trkpt lat="35.811258" lon="-97.442707">
        <ele>305.535811</ele>
        <time>2024-07-20T07:30:18.000Z</time>
      </trkpt>
      <trkpt lat="35.810978" lon="-97.443176">
        <ele>306.258167</ele>
        <time>2024-07-20T07:30:23.000Z</time>
      </trkpt>
      <trkpt lat="35.808602" lon="-97.443097">
        <ele>312.433766</ele>
        <time>2024-07-20T07:30:49.000Z</time>
      </trkpt>
      <trkpt lat="35.806104" lon="-97.44303">
        <ele>319.10801</ele>
        <time>2024-07-20T07:31:17.000Z</time>
      </trkpt>
      <trkpt lat="35.804958" lon="-97.443012">
        <ele>322.044878</ele>
        <time>2024-07-20T07:31:30.000Z</time>
      </trkpt>
      <trkpt lat="35.804538" lon="-97.442999">
        <ele>323.007568</ele>
        <time>2024-07-20T07:31:35.000Z</time>
      </trkpt>
      <trkpt lat="35.803282" lon="-97.442971">
        <ele>325.841474</ele>
        <time>2024-07-20T07:31:49.000Z</time>
      </trkpt>
      <trkpt lat="35.802645" lon="-97.442952">
        <ele>327.045154</ele>
        <time>2024-07-20T07:31:56.000Z</time>
      </trkpt>
      <trkpt lat="35.80223" lon="-97.442941">
        <ele>327.812086</ele>
        <time>2024-07-20T07:32:01.000Z</time>
      </trkpt>
      <trkpt lat="35.79961" lon="-97.442871">
        <ele>332.279578</ele>
        <time>2024-07-20T07:32:30.000Z</time>
      </trkpt>
      <trkpt lat="35.797857" lon="-97.442871">
        <ele>333.49019</ele>
        <time>2024-07-20T07:32:49.000Z</time>
      </trkpt>
      <trkpt lat="35.796146" lon="-97.442864">
        <ele>332.258635</ele>
        <time>2024-07-20T07:33:08.000Z</time>
      </trkpt>
      <trkpt lat="35.79542" lon="-97.442868">
        <ele>332.024238</ele>
        <time>2024-07-20T07:33:16.000Z</time>
      </trkpt>
      <trkpt lat="35.795379" lon="-97.442869">
        <ele>332.011049</ele>
        <time>2024-07-20T07:33:16.000Z</time>
      </trkpt>
      <trkpt lat="35.7925" lon="-97.442911">
        <ele>332.141238</ele>
        <time>2024-07-20T07:33:48.000Z</time>
      </trkpt>
      <trkpt lat="35.792069" lon="-97.442921">
        <ele>332.095916</ele>
        <time>2024-07-20T07:33:53.000Z</time>
      </trkpt>
      <trkpt lat="35.791452" lon="-97.44292">
        <ele>331.985622</ele>
        <time>2024-07-20T07:34:00.000Z</time>
      </trkpt>
      <trkpt lat="35.789939" lon="-97.442907">
        <ele>331.050419</ele>
        <time>2024-07-20T07:34:17.000Z</time>
      </trkpt>
      <trkpt lat="35.789711" lon="-97.442905">
        <ele>330.772036</ele>
        <time>2024-07-20T07:34:20.000Z</time>
      </trkpt>
      <trkpt lat="35.785334" lon="-97.442881">
        <ele>325.869237</ele>
        <time>2024-07-20T07:35:09.000Z</time>
      </trkpt>
      <trkpt lat="35.783338" lon="-97.44288">
        <ele>329.496944</ele>
        <time>2024-07-20T07:35:31.000Z</time>
      </trkpt>
      <trkpt lat="35.781327" lon="-97.442886">
        <ele>330.25279</ele>
        <time>2024-07-20T07:35:53.000Z</time>
      </trkpt>
      <trkpt lat="35.780339" lon="-97.442883">
        <ele>330.26002</ele>
        <time>2024-07-20T07:36:04.000Z</time>
      </trkpt>
      <trkpt lat="35.777944" lon="-97.442906">
        <ele>330.352954</ele>
        <time>2024-07-20T07:36:31.000Z</time>
      </trkpt>
      <trkpt lat="35.777436" lon="-97.442904">
        <ele>329.079205</ele>
        <time>2024-07-20T07:36:37.000Z</time>
      </trkpt>
      <trkpt lat="35.777095" lon="-97.442901">
        <ele>328.193754</ele>
        <time>2024-07-20T07:36:41.000Z</time>
      </trkpt>
      <trkpt lat="35.776018" lon="-97.442873">
        <ele>325.627068</ele>
        <time>2024-07-20T07:36:53.000Z</time>
      </trkpt>
      <trkpt lat="35.775923" lon="-97.442871">
        <ele>325.463515</ele>
        <time>2024-07-20T07:36:54.000Z</time>
      </trkpt>
      <trkpt lat="35.773998" lon="-97.442934">
        <ele>323.270107</ele>
        <time>2024-07-20T07:37:15.000Z</time>
      </trkpt>
      <trkpt lat="35.772934" lon="-97.442894">
        <ele>324.848543</ele>
        <time>2024-07-20T07:37:27.000Z</time>
      </trkpt>
      <trkpt lat="35.772703" lon="-97.442909">
        <ele>325.207663</ele>
        <time>2024-07-20T07:37:30.000Z</time>
      </trkpt>
      <trkpt lat="35.772169" lon="-97.442888">
        <ele>325.846329</ele>
        <time>2024-07-20T07:37:36.000Z</time>
      </trkpt>
      <trkpt lat="35.768871" lon="-97.442907">
        <ele>327.880307</ele>
        <time>2024-07-20T07:38:13.000Z</time>
      </trkpt>
      <trkpt lat="35.766817" lon="-97.442968">
        <ele>327.270357</ele>
        <time>2024-07-20T07:38:36.000Z</time>
      </trkpt>
      <trkpt lat="35.766231" lon="-97.442941">
        <ele>327.564378</ele>
        <time>2024-07-20T07:38:43.000Z</time>
      </trkpt>
      <trkpt lat="35.763174" lon="-97.442829">
        <ele>331.117453</ele>
        <time>2024-07-20T07:39:17.000Z</time>
      </trkpt>
      <trkpt lat="35.762478" lon="-97.442819">
        <ele>331.572605</ele>
        <time>2024-07-20T07:39:25.000Z</time>
      </trkpt>
      <trkpt lat="35.762123" lon="-97.442826">
        <ele>331.805836</ele>
        <time>2024-07-20T07:39:29.000Z</time>
      </trkpt>
      <trkpt lat="35.761707" lon="-97.442819">
        <ele>331.867741</ele>
        <time>2024-07-20T07:39:34.000Z</time>
      </trkpt>
      <trkpt lat="35.761202" lon="-97.442808">
        <ele>331.466531</ele>
        <time>2024-07-20T07:39:40.000Z</time>
      </trkpt>
      <trkpt lat="35.760048" lon="-97.442805">
        <ele>330.561695</ele>
        <time>2024-07-20T07:39:53.000Z</time>
      </trkpt>
      <trkpt lat="35.757845" lon="-97.442796">
        <ele>331.194975</ele>
        <time>2024-07-20T07:40:17.000Z</time>
      </trkpt>
      <trkpt lat="35.757379" lon="-97.442806">
        <ele>331.352582</ele>
        <time>2024-07-20T07:40:22.000Z</time>
      </trkpt>
      <trkpt lat="35.755758" lon="-97.442837">
        <ele>330.48737</ele>
        <time>2024-07-20T07:40:40.000Z</time>
      </trkpt>
      <trkpt lat="35.754201" lon="-97.442835">
        <ele>327.33923</ele>
        <time>2024-07-20T07:40:57.000Z</time>
      </trkpt>
      <trkpt lat="35.753634" lon="-97.442815">
        <ele>325.704497</ele>
        <time>2024-07-20T07:41:03.000Z</time>
      </trkpt>
      <trkpt lat="35.753006" lon="-97.442815">
        <ele>323.982543</ele>
        <time>2024-07-20T07:41:10.000Z</time>
      </trkpt>
      <trkpt lat="35.752452" lon="-97.442793">
        <ele>323.583359</ele>
        <time>2024-07-20T07:41:16.000Z</time>
      </trkpt>
      <trkpt lat="35.751991" lon="-97.442766">
        <ele>323.609123</ele>
        <time>2024-07-20T07:41:21.000Z</time>
      </trkpt>
      <trkpt lat="35.752449" lon="-97.442794">
        <ele>323.634899</ele>
        <time>2024-07-20T07:41:26.000Z</time>
      </trkpt>
      <trkpt lat="35.75301" lon="-97.4428">
        <ele>323.95582</ele>
        <time>2024-07-20T07:41:32.000Z</time>
      </trkpt>
      <trkpt lat="35.753635" lon="-97.442821">
        <ele>325.689219</ele>
        <time>2024-07-20T07:41:39.000Z</time>
      </trkpt>
      <trkpt lat="35.754201" lon="-97.442825">
        <ele>327.334817</ele>
        <time>2024-07-20T07:41:45.000Z</time>
      </trkpt>
      <trkpt lat="35.755764" lon="-97.442828">
        <ele>330.472252</ele>
        <time>2024-07-20T07:42:02.000Z</time>
      </trkpt>
      <trkpt lat="35.757391" lon="-97.442807">
        <ele>331.360913</ele>
        <time>2024-07-20T07:42:20.000Z</time>
      </trkpt>
      <trkpt lat="35.757843" lon="-97.44279">
        <ele>331.192816</ele>
        <time>2024-07-20T07:42:25.000Z</time>
      </trkpt>
      <trkpt lat="35.76005" lon="-97.442805">
        <ele>330.589878</ele>
        <time>2024-07-20T07:42:50.000Z</time>
      </trkpt>
      <trkpt lat="35.761197" lon="-97.44282">
        <ele>331.44812</ele>
        <time>2024-07-20T07:43:03.000Z</time>
      </trkpt>
      <trkpt lat="35.761708" lon="-97.442827">
        <ele>331.849973</ele>
        <time>2024-07-20T07:43:09.000Z</time>
      </trkpt>
      <trkpt lat="35.762132" lon="-97.442826">
        <ele>331.844496</ele>
        <time>2024-07-20T07:43:14.000Z</time>
      </trkpt>
      <trkpt lat="35.762479" lon="-97.442833">
        <ele>331.594286</ele>
        <time>2024-07-20T07:43:18.000Z</time>
      </trkpt>
      <trkpt lat="35.763162" lon="-97.442836">
        <ele>331.106004</ele>
        <time>2024-07-20T07:43:26.000Z</time>
      </trkpt>
      <trkpt lat="35.766236" lon="-97.442948">
        <ele>327.557511</ele>
        <time>2024-07-20T07:44:00.000Z</time>
      </trkpt>
      <trkpt lat="35.766827" lon="-97.442971">
        <ele>327.29403</ele>
        <time>2024-07-20T07:44:07.000Z</time>
      </trkpt>
      <trkpt lat="35.768876" lon="-97.442902">
        <ele>327.861931</ele>
        <time>2024-07-20T07:44:30.000Z</time>
      </trkpt>
      <trkpt lat="35.772172" lon="-97.442896">
        <ele>325.818223</ele>
        <time>2024-07-20T07:45:07.000Z</time>
      </trkpt>
      <trkpt lat="35.772687" lon="-97.442906">
        <ele>325.167139</ele>
        <time>2024-07-20T07:45:13.000Z</time>
      </trkpt>
      <trkpt lat="35.772943" lon="-97.442907">
        <ele>324.825973</ele>
        <time>2024-07-20T07:45:16.000Z</time>
      </trkpt>
      <trkpt lat="35.773987" lon="-97.442938">
        <ele>323.326529</ele>
        <time>2024-07-20T07:45:28.000Z</time>
      </trkpt>
      <trkpt lat="35.775925" lon="-97.442882">
        <ele>325.494084</ele>
        <time>2024-07-20T07:45:50.000Z</time>
      </trkpt>
      <trkpt lat="35.776017" lon="-97.442885">
        <ele>325.663191</ele>
        <time>2024-07-20T07:45:51.000Z</time>
      </trkpt>
      <trkpt lat="35.777097" lon="-97.442894">
        <ele>328.171677</ele>
        <time>2024-07-20T07:46:03.000Z</time>
      </trkpt>
      <trkpt lat="35.777441" lon="-97.442904">
        <ele>329.0359</ele>
        <time>2024-07-20T07:46:07.000Z</time>
      </trkpt>
      <trkpt lat="35.777951" lon="-97.442893">
        <ele>330.279058</ele>
        <time>2024-07-20T07:46:13.000Z</time>
      </trkpt>
      <trkpt lat="35.78034" lon="-97.44289">
        <ele>330.251426</ele>
        <time>2024-07-20T07:46:40.000Z</time>
      </trkpt>
      <trkpt lat="35.781323" lon="-97.442889">
        <ele>330.252808</ele>
        <time>2024-07-20T07:46:51.000Z</time>
      </trkpt>
      <trkpt lat="35.783333" lon="-97.442873">
        <ele>329.451559</ele>
        <time>2024-07-20T07:47:13.000Z</time>
      </trkpt>
      <trkpt lat="35.785333" lon="-97.442883">
        <ele>325.798461</ele>
        <time>2024-07-20T07:47:35.000Z</time>
      </trkpt>
      <trkpt lat="35.789712" lon="-97.442902">
        <ele>330.769589</ele>
        <time>2024-07-20T07:48:24.000Z</time>
      </trkpt>
      <trkpt lat="35.789939" lon="-97.44292">
        <ele>331.043613</ele>
        <time>2024-07-20T07:48:27.000Z</time>
      </trkpt>
      <trkpt lat="35.791441" lon="-97.442926">
        <ele>331.991646</ele>
        <time>2024-07-20T07:48:44.000Z</time>
      </trkpt>
      <trkpt lat="35.792077" lon="-97.442932">
        <ele>332.086076</ele>
        <time>2024-07-20T07:48:51.000Z</time>
      </trkpt>
      <trkpt lat="35.792496" lon="-97.442911">
        <ele>332.140178</ele>
        <time>2024-07-20T07:48:56.000Z</time>
      </trkpt>
      <trkpt lat="35.795372" lon="-97.442866">
        <ele>332.019897</ele>
        <time>2024-07-20T07:49:28.000Z</time>
      </trkpt>
      <trkpt lat="35.795434" lon="-97.442852">
        <ele>332.034568</ele>
        <time>2024-07-20T07:49:29.000Z</time>
      </trkpt>
      <trkpt lat="35.796149" lon="-97.442861">
        <ele>332.261316</ele>
        <time>2024-07-20T07:49:37.000Z</time>
      </trkpt>
      <trkpt lat="35.797853" lon="-97.442862">
        <ele>333.49685</ele>
        <time>2024-07-20T07:49:56.000Z</time>
      </trkpt>
      <trkpt lat="35.79962" lon="-97.442864">
        <ele>332.253653</ele>
        <time>2024-07-20T07:50:16.000Z</time>
      </trkpt>
      <trkpt lat="35.802234" lon="-97.442935">
        <ele>327.810712</ele>
        <time>2024-07-20T07:50:45.000Z</time>
      </trkpt>
      <trkpt lat="35.802644" lon="-97.442946">
        <ele>327.040339</ele>
        <time>2024-07-20T07:50:50.000Z</time>
      </trkpt>
      <trkpt lat="35.803286" lon="-97.442969">
        <ele>325.849657</ele>
        <time>2024-07-20T07:50:57.000Z</time>
      </trkpt>
      <trkpt lat="35.804533" lon="-97.443">
        <ele>323.004855</ele>
        <time>2024-07-20T07:51:11.000Z</time>
      </trkpt>
      <trkpt lat="35.804957" lon="-97.443012">
        <ele>322.038437</ele>
        <time>2024-07-20T07:51:16.000Z</time>
      </trkpt>
      <trkpt lat="35.806122" lon="-97.443035">
        <ele>319.107965</ele>
        <time>2024-07-20T07:51:29.000Z</time>
      </trkpt>
      <trkpt lat="35.808596" lon="-97.443111">
        <ele>312.565148</ele>
        <time>2024-07-20T07:51:57.000Z</time>
      </trkpt>
      <trkpt lat="35.81097" lon="-97.443169">
        <ele>308.634579</ele>
        <time>2024-07-20T07:52:23.000Z</time>
      </trkpt>
      <trkpt lat="35.80859" lon="-97.443108">
        <ele>312.613559</ele>
        <time>2024-07-20T07:52:49.000Z</time>
      </trkpt>
      <trkpt lat="35.806117" lon="-97.443039">
        <ele>319.159506</ele>
        <time>2024-07-20T07:53:17.000Z</time>
      </trkpt>
      <trkpt lat="35.804972" lon="-97.443021">
        <ele>321.983845</ele>
        <time>2024-07-20T07:53:30.000Z</time>
      </trkpt>
      <trkpt lat="35.804534" lon="-97.443008">
        <ele>323.029792</ele>
        <time>2024-07-20T07:53:35.000Z</time>
      </trkpt>
      <trkpt lat="35.803288" lon="-97.442967">
        <ele>325.755435</ele>
        <time>2024-07-20T07:53:49.000Z</time>
      </trkpt>
      <trkpt lat="35.802658" lon="-97.442944">
        <ele>327.088441</ele>
        <time>2024-07-20T07:53:56.000Z</time>
      </trkpt>
      <trkpt lat="35.802234" lon="-97.442931">
        <ele>327.869948</ele>
        <time>2024-07-20T07:54:01.000Z</time>
      </trkpt>
      <trkpt lat="35.799615" lon="-97.44288">
        <ele>332.080956</ele>
        <time>2024-07-20T07:54:30.000Z</time>
      </trkpt>
      <trkpt lat="35.79785" lon="-97.442865">
        <ele>333.132122</ele>
        <time>2024-07-20T07:54:50.000Z</time>
      </trkpt>
      <trkpt lat="35.796151" lon="-97.442867">
        <ele>332.419435</ele>
        <time>2024-07-20T07:55:09.000Z</time>
      </trkpt>
      <trkpt lat="35.795421" lon="-97.442857">
        <ele>331.839101</ele>
        <time>2024-07-20T07:55:17.000Z</time>
      </trkpt>
      <trkpt lat="35.795374" lon="-97.442871">
        <ele>331.794519</ele>
        <time>2024-07-20T07:55:18.000Z</time>
      </trkpt>
      <trkpt lat="35.792492" lon="-97.442916">
        <ele>332.087024</ele>
        <time>2024-07-20T07:55:50.000Z</time>
      </trkpt>
      <trkpt lat="35.792076" lon="-97.44293">
        <ele>332.169703</ele>
        <time>2024-07-20T07:55:55.000Z</time>
      </trkpt>
      <trkpt lat="35.791444" lon="-97.442926">
        <ele>332.084176</ele>
        <time>2024-07-20T07:56:02.000Z</time>
      </trkpt>
      <trkpt lat="35.78994" lon="-97.44291">
        <ele>331.189009</ele>
        <time>2024-07-20T07:56:19.000Z</time>
      </trkpt>
      <trkpt lat="35.789712" lon="-97.442917">
        <ele>330.883406</ele>
        <time>2024-07-20T07:56:22.000Z</time>
      </trkpt>
      <trkpt lat="35.785334" lon="-97.442876">
        <ele>326.641906</ele>
        <time>2024-07-20T07:57:11.000Z</time>
      </trkpt>
      <trkpt lat="35.783323" lon="-97.442879">
        <ele>329.08739</ele>
        <time>2024-07-20T07:57:33.000Z</time>
      </trkpt>
      <trkpt lat="35.781332" lon="-97.442895">
        <ele>330.173489</ele>
        <time>2024-07-20T07:57:55.000Z</time>
      </trkpt>
      <trkpt lat="35.780346" lon="-97.44289">
        <ele>330.297775</ele>
        <time>2024-07-20T07:58:06.000Z</time>
      </trkpt>
      <trkpt lat="35.777942" lon="-97.442901">
        <ele>329.828569</ele>
        <time>2024-07-20T07:58:33.000Z</time>
      </trkpt>
      <trkpt lat="35.77744" lon="-97.4429">
        <ele>329.512972</ele>
        <time>2024-07-20T07:58:39.000Z</time>
      </trkpt>
      <trkpt lat="35.777091" lon="-97.442888">
        <ele>328.760701</ele>
        <time>2024-07-20T07:58:43.000Z</time>
      </trkpt>
      <trkpt lat="35.776026" lon="-97.442872">
        <ele>325.61526</ele>
        <time>2024-07-20T07:58:55.000Z</time>
      </trkpt>
      <trkpt lat="35.775927" lon="-97.442872">
        <ele>325.365636</ele>
        <time>2024-07-20T07:58:56.000Z</time>
      </trkpt>
      <trkpt lat="35.773986" lon="-97.442937">
        <ele>323.039694</ele>
        <time>2024-07-20T07:59:18.000Z</time>
      </trkpt>
      <trkpt lat="35.77294" lon="-97.442894">
        <ele>324.509969</ele>
        <time>2024-07-20T07:59:30.000Z</time>
      </trkpt>
      <trkpt lat="35.772692" lon="-97.442893">
        <ele>325.021931</ele>
        <time>2024-07-20T07:59:33.000Z</time>
      </trkpt>
      <trkpt lat="35.772163" lon="-97.4429">
        <ele>326.135082</ele>
        <time>2024-07-20T07:59:39.000Z</time>
      </trkpt>
      <trkpt lat="35.768885" lon="-97.442903">
        <ele>327.743724</ele>
        <time>2024-07-20T08:00:15.000Z</time>
      </trkpt>
      <trkpt lat="35.766824" lon="-97.442978">
        <ele>327.070966</ele>
        <time>2024-07-20T08:00:38.000Z</time>
      </trkpt>
      <trkpt lat="35.766237" lon="-97.442951">
        <ele>327.291881</ele>
        <time>2024-07-20T08:00:45.000Z</time>
      </trkpt>
      <trkpt lat="35.763173" lon="-97.44283">
        <ele>331.370294</ele>
        <time>2024-07-20T08:01:19.000Z</time>
      </trkpt>
      <trkpt lat="35.762484" lon="-97.442834">
        <ele>331.636445</ele>
        <time>2024-07-20T08:01:27.000Z</time>
      </trkpt>
      <trkpt lat="35.762129" lon="-97.442833">
        <ele>331.578871</ele>
        <time>2024-07-20T08:01:31.000Z</time>
      </trkpt>
      <trkpt lat="35.761707" lon="-97.442819">
        <ele>331.508962</ele>
        <time>2024-07-20T08:01:36.000Z</time>
      </trkpt>
      <trkpt lat="35.761204" lon="-97.442816">
        <ele>331.426118</ele>
        <time>2024-07-20T08:01:42.000Z</time>
      </trkpt>
      <trkpt lat="35.760057" lon="-97.442793">
        <ele>330.886983</ele>
        <time>2024-07-20T08:01:55.000Z</time>
      </trkpt>
      <trkpt lat="35.757858" lon="-97.442793">
        <ele>331.274643</ele>
        <time>2024-07-20T08:02:19.000Z</time>
      </trkpt>
      <trkpt lat="35.757379" lon="-97.442804">
        <ele>331.396897</ele>
        <time>2024-07-20T08:02:24.000Z</time>
      </trkpt>
      <trkpt lat="35.75577" lon="-97.442825">
        <ele>331.048653</ele>
        <time>2024-07-20T08:02:42.000Z</time>
      </trkpt>
      <trkpt lat="35.754212" lon="-97.44284">
        <ele>327.160997</ele>
        <time>2024-07-20T08:02:59.000Z</time>
      </trkpt>
      <trkpt lat="35.753626" lon="-97.44282">
        <ele>325.803557</ele>
        <time>2024-07-20T08:03:06.000Z</time>
      </trkpt>
      <trkpt lat="35.75302" lon="-97.442811">
        <ele>324.477459</ele>
        <time>2024-07-20T08:03:13.000Z</time>
      </trkpt>
      <trkpt lat="35.75244" lon="-97.442793">
        <ele>323.248287</ele>
        <time>2024-07-20T08:03:19.000Z</time>
      </trkpt>
      <trkpt lat="35.751997" lon="-97.442769">
        <ele>322.839072</ele>
        <time>2024-07-20T08:03:24.000Z</time>
      </trkpt>
      <trkpt lat="35.751984" lon="-97.442775">
        <ele>322.85222</ele>
        <time>2024-07-20T08:03:24.000Z</time>
      </trkpt>
      <trkpt lat="35.751987" lon="-97.442775">
        <ele>322.865353</ele>
        <time>2024-07-20T08:03:24.000Z</time>
      </trkpt>
      <trkpt lat="35.752454" lon="-97.442788">
        <ele>323.620003</ele>
        <time>2024-07-20T08:03:29.000Z</time>
      </trkpt>
      <trkpt lat="35.753009" lon="-97.442806">
        <ele>324.552451</ele>
        <time>2024-07-20T08:03:35.000Z</time>
      </trkpt>
      <trkpt lat="35.753623" lon="-97.442826">
        <ele>325.569139</ele>
        <time>2024-07-20T08:03:42.000Z</time>
      </trkpt>
      <trkpt lat="35.754213" lon="-97.44284">
        <ele>327.17183</ele>
        <time>2024-07-20T08:03:49.000Z</time>
      </trkpt>
      <trkpt lat="35.755757" lon="-97.442825">
        <ele>330.707359</ele>
        <time>2024-07-20T08:04:06.000Z</time>
      </trkpt>
      <trkpt lat="35.757391" lon="-97.442792">
        <ele>331.468536</ele>
        <time>2024-07-20T08:04:24.000Z</time>
      </trkpt>
      <trkpt lat="35.757856" lon="-97.442795">
        <ele>331.241908</ele>
        <time>2024-07-20T08:04:29.000Z</time>
      </trkpt>
      <trkpt lat="35.760054" lon="-97.442804">
        <ele>330.902827</ele>
        <time>2024-07-20T08:04:53.000Z</time>
      </trkpt>
      <trkpt lat="35.761197" lon="-97.442821">
        <ele>331.264648</ele>
        <time>2024-07-20T08:05:06.000Z</time>
      </trkpt>
      <trkpt lat="35.761703" lon="-97.442819">
        <ele>331.513427</ele>
        <time>2024-07-20T08:05:12.000Z</time>
      </trkpt>
      <trkpt lat="35.762124" lon="-97.442817">
        <ele>331.723278</ele>
        <time>2024-07-20T08:05:17.000Z</time>
      </trkpt>
      <trkpt lat="35.762483" lon="-97.442824">
        <ele>331.896203</ele>
        <time>2024-07-20T08:05:21.000Z</time>
      </trkpt>
      <trkpt lat="35.763174" lon="-97.442839">
        <ele>331.232807</ele>
        <time>2024-07-20T08:05:29.000Z</time>
      </trkpt>
      <trkpt lat="35.76623" lon="-97.442937">
        <ele>327.104869</ele>
        <time>2024-07-20T08:06:03.000Z</time>
      </trkpt>
      <trkpt lat="35.766831" lon="-97.442963">
        <ele>327.257017</ele>
        <time>2024-07-20T08:06:10.000Z</time>
      </trkpt>
      <trkpt lat="35.768887" lon="-97.442909">
        <ele>327.694659</ele>
        <time>2024-07-20T08:06:33.000Z</time>
      </trkpt>
      <trkpt lat="35.772163" lon="-97.442896">
        <ele>325.87312</ele>
        <time>2024-07-20T08:07:09.000Z</time>
      </trkpt>
      <trkpt lat="35.772689" lon="-97.442902">
        <ele>324.802079</ele>
        <time>2024-07-20T08:07:15.000Z</time>
      </trkpt>
      <trkpt lat="35.772928" lon="-97.442904">
        <ele>324.309483</ele>
        <time>2024-07-20T08:07:18.000Z</time>
      </trkpt>
      <trkpt lat="35.773996" lon="-97.44293">
        <ele>323.416028</ele>
        <time>2024-07-20T08:07:30.000Z</time>
      </trkpt>
      <trkpt lat="35.775939" lon="-97.442879">
        <ele>325.564308</ele>
        <time>2024-07-20T08:07:52.000Z</time>
      </trkpt>
      <trkpt lat="35.776019" lon="-97.442869">
        <ele>325.800413</ele>
        <time>2024-07-20T08:07:53.000Z</time>
      </trkpt>
      <trkpt lat="35.777092" lon="-97.442898">
        <ele>328.630543</ele>
        <time>2024-07-20T08:08:05.000Z</time>
      </trkpt>
      <trkpt lat="35.777437" lon="-97.442904">
        <ele>329.058182</ele>
        <time>2024-07-20T08:08:09.000Z</time>
      </trkpt>
      <trkpt lat="35.77795" lon="-97.442907">
        <ele>329.673336</ele>
        <time>2024-07-20T08:08:15.000Z</time>
      </trkpt>
      <trkpt lat="35.78034" lon="-97.44289">
        <ele>330.239183</ele>
        <time>2024-07-20T08:08:42.000Z</time>
      </trkpt>
      <trkpt lat="35.781331" lon="-97.442886">
        <ele>330.197212</ele>
        <time>2024-07-20T08:08:53.000Z</time>
      </trkpt>
      <trkpt lat="35.783338" lon="-97.442874">
        <ele>329.007816</ele>
        <time>2024-07-20T08:09:15.000Z</time>
      </trkpt>
      <trkpt lat="35.785323" lon="-97.442879">
        <ele>326.563726</ele>
        <time>2024-07-20T08:09:37.000Z</time>
      </trkpt>
      <trkpt lat="35.789706" lon="-97.442915">
        <ele>330.885528</ele>
        <time>2024-07-20T08:10:26.000Z</time>
      </trkpt>
      <trkpt lat="35.789939" lon="-97.442907">
        <ele>331.073258</ele>
        <time>2024-07-20T08:10:29.000Z</time>
      </trkpt>
      <trkpt lat="35.791448" lon="-97.442915">
        <ele>332.187347</ele>
        <time>2024-07-20T08:10:46.000Z</time>
      </trkpt>
      <trkpt lat="35.792074" lon="-97.442927">
        <ele>332.104765</ele>
        <time>2024-07-20T08:10:53.000Z</time>
      </trkpt>
      <trkpt lat="35.792498" lon="-97.442915">
        <ele>332.049786</ele>
        <time>2024-07-20T08:10:58.000Z</time>
      </trkpt>
      <trkpt lat="35.795378" lon="-97.442864">
        <ele>331.927459</ele>
        <time>2024-07-20T08:11:30.000Z</time>
      </trkpt>
      <trkpt lat="35.795419" lon="-97.442862">
        <ele>331.965359</ele>
        <time>2024-07-20T08:11:30.000Z</time>
      </trkpt>
      <trkpt lat="35.796152" lon="-97.442867">
        <ele>332.458599</ele>
        <time>2024-07-20T08:11:38.000Z</time>
      </trkpt>
      <trkpt lat="35.797848" lon="-97.442878">
        <ele>333.139168</ele>
        <time>2024-07-20T08:11:57.000Z</time>
      </trkpt>
      <trkpt lat="35.799614" lon="-97.442866">
        <ele>332.069524</ele>
        <time>2024-07-20T08:12:17.000Z</time>
      </trkpt>
      <trkpt lat="35.802236" lon="-97.442931">
        <ele>327.875216</ele>
        <time>2024-07-20T08:12:46.000Z</time>
      </trkpt>
      <trkpt lat="35.802659" lon="-97.442945">
        <ele>327.039088</ele>
        <time>2024-07-20T08:12:51.000Z</time>
      </trkpt>
      <trkpt lat="35.803276" lon="-97.442962">
        <ele>325.754424</ele>
        <time>2024-07-20T08:12:58.000Z</time>
      </trkpt>
      <trkpt lat="35.804539" lon="-97.443001">
        <ele>323.001825</ele>
        <time>2024-07-20T08:13:12.000Z</time>
      </trkpt>
      <trkpt lat="35.804965" lon="-97.443025">
        <ele>321.980963</ele>
        <time>2024-07-20T08:13:17.000Z</time>
      </trkpt>
      <trkpt lat="35.806109" lon="-97.443033">
        <ele>319.139009</ele>
        <time>2024-07-20T08:13:30.000Z</time>
      </trkpt>
      <trkpt lat="35.808591" lon="-97.44311">
        <ele>312.615792</ele>
        <time>2024-07-20T08:13:58.000Z</time>
      </trkpt>
      <trkpt lat="35.810973" lon="-97.443172">
        <ele>308.141143</ele>
        <time>2024-07-20T08:14:24.000Z</time>
      </trkpt>
      <trkpt lat="35.808604" lon="-97.443099">
        <ele>312.59449</ele>
        <time>2024-07-20T08:14:50.000Z</time>
      </trkpt>
      <trkpt lat="35.806113" lon="-97.443026">
        <ele>319.116742</ele>
        <time>2024-07-20T08:15:18.000Z</time>
      </trkpt>
      <trkpt lat="35.804959" lon="-97.443023">
        <ele>322.003184</ele>
        <time>2024-07-20T08:15:31.000Z</time>
      </trkpt>
      <trkpt lat="35.804538" lon="-97.443007">
        <ele>322.994089</ele>
        <time>2024-07-20T08:15:36.000Z</time>
      </trkpt>
      <trkpt lat="35.803291" lon="-97.442965">
        <ele>325.792966</ele>
        <time>2024-07-20T08:15:50.000Z</time>
      </trkpt>
      <trkpt lat="35.802642" lon="-97.442943">
        <ele>327.020707</ele>
        <time>2024-07-20T08:15:57.000Z</time>
      </trkpt>
      <trkpt lat="35.802239" lon="-97.442938">
        <ele>327.819787</ele>
        <time>2024-07-20T08:16:01.000Z</time>
      </trkpt>
      <trkpt lat="35.799608" lon="-97.442876">
        <ele>332.125065</ele>
        <time>2024-07-20T08:16:30.000Z</time>
      </trkpt>
      <trkpt lat="35.797847" lon="-97.442864">
        <ele>333.293913</ele>
        <time>2024-07-20T08:16:50.000Z</time>
      </trkpt>
      <trkpt lat="35.796153" lon="-97.442872">
        <ele>332.395614</ele>
        <time>2024-07-20T08:17:09.000Z</time>
      </trkpt>
      <trkpt lat="35.795425" lon="-97.442859">
        <ele>332.055506</ele>
        <time>2024-07-20T08:17:17.000Z</time>
      </trkpt>
      <trkpt lat="35.795376" lon="-97.442869">
        <ele>332.029369</ele>
        <time>2024-07-20T08:17:18.000Z</time>
      </trkpt>
      <trkpt lat="35.79249" lon="-97.442912">
        <ele>332.060352</ele>
        <time>2024-07-20T08:17:50.000Z</time>
      </trkpt>
      <trkpt lat="35.792084" lon="-97.442925">
        <ele>332.059447</ele>
        <time>2024-07-20T08:17:55.000Z</time>
      </trkpt>
      <trkpt lat="35.791446" lon="-97.442918">
        <ele>332.058088</ele>
        <time>2024-07-20T08:18:02.000Z</time>
      </trkpt>
      <trkpt lat="35.789949" lon="-97.442916">
        <ele>331.021255</ele>
        <time>2024-07-20T08:18:19.000Z</time>
      </trkpt>
      <trkpt lat="35.78971" lon="-97.442919">
        <ele>330.78504</ele>
        <time>2024-07-20T08:18:22.000Z</time>
      </trkpt>
      <trkpt lat="35.785325" lon="-97.442868">
        <ele>326.121093</ele>
        <time>2024-07-20T08:19:11.000Z</time>
      </trkpt>
      <trkpt lat="35.783336" lon="-97.442879">
        <ele>329.173119</ele>
        <time>2024-07-20T08:19:33.000Z</time>
      </trkpt>
      <trkpt lat="35.781329" lon="-97.442893">
        <ele>330.232623</ele>
        <time>2024-07-20T08:19:55.000Z</time>
      </trkpt>
      <trkpt lat="35.780333" lon="-97.442894">
        <ele>330.191091</ele>
        <time>2024-07-20T08:20:06.000Z</time>
      </trkpt>
      <trkpt lat="35.777953" lon="-97.442898">
        <ele>329.848305</ele>
        <time>2024-07-20T08:20:32.000Z</time>
      </trkpt>
      <trkpt lat="35.777432" lon="-97.442901">
        <ele>328.862526</ele>
        <time>2024-07-20T08:20:38.000Z</time>
      </trkpt>
      <trkpt lat="35.777087" lon="-97.442892">
        <ele>328.177253</ele>
        <time>2024-07-20T08:20:42.000Z</time>
      </trkpt>
      <trkpt lat="35.776026" lon="-97.442881">
        <ele>325.820479</ele>
        <time>2024-07-20T08:20:54.000Z</time>
      </trkpt>
      <trkpt lat="35.775923" lon="-97.442883">
        <ele>325.616559</ele>
        <time>2024-07-20T08:20:55.000Z</time>
      </trkpt>
      <trkpt lat="35.773988" lon="-97.44293">
        <ele>323.569862</ele>
        <time>2024-07-20T08:21:17.000Z</time>
      </trkpt>
      <trkpt lat="35.772943" lon="-97.442893">
        <ele>324.462048</ele>
        <time>2024-07-20T08:21:29.000Z</time>
      </trkpt>
      <trkpt lat="35.772689" lon="-97.442896">
        <ele>324.85664</ele>
        <time>2024-07-20T08:21:32.000Z</time>
      </trkpt>
      <trkpt lat="35.772175" lon="-97.442903">
        <ele>325.714575</ele>
        <time>2024-07-20T08:21:38.000Z</time>
      </trkpt>
      <trkpt lat="35.768886" lon="-97.442898">
        <ele>327.74741</ele>
        <time>2024-07-20T08:22:15.000Z</time>
      </trkpt>
      <trkpt lat="35.766824" lon="-97.442972">
        <ele>327.363051</ele>
        <time>2024-07-20T08:22:38.000Z</time>
      </trkpt>
      <trkpt lat="35.76624" lon="-97.442951">
        <ele>327.421651</ele>
        <time>2024-07-20T08:22:44.000Z</time>
      </trkpt>
      <trkpt lat="35.763168" lon="-97.442838">
        <ele>331.106891</ele>
        <time>2024-07-20T08:23:18.000Z</time>
      </trkpt>
      <trkpt lat="35.762474" lon="-97.442829">
        <ele>331.807586</ele>
        <time>2024-07-20T08:23:26.000Z</time>
      </trkpt>
      <trkpt lat="35.762127" lon="-97.442815">
        <ele>331.999585</ele>
        <time>2024-07-20T08:23:30.000Z</time>
      </trkpt>
      <trkpt lat="35.7617" lon="-97.442809">
        <ele>331.686405</ele>
        <time>2024-07-20T08:23:35.000Z</time>
      </trkpt>
      <trkpt lat="35.761205" lon="-97.442818">
        <ele>331.315124</ele>
        <time>2024-07-20T08:23:41.000Z</time>
      </trkpt>
      <trkpt lat="35.760053" lon="-97.442801">
        <ele>330.7684</ele>
        <time>2024-07-20T08:23:54.000Z</time>
      </trkpt>
      <trkpt lat="35.757844" lon="-97.442803">
        <ele>331.202121</ele>
        <time>2024-07-20T08:24:19.000Z</time>
      </trkpt>
      <trkpt lat="35.757395" lon="-97.442794">
        <ele>331.411905</ele>
        <time>2024-07-20T08:24:24.000Z</time>
      </trkpt>
      <trkpt lat="35.755757" lon="-97.442823">
        <ele>330.473325</ele>
        <time>2024-07-20T08:24:42.000Z</time>
      </trkpt>
      <trkpt lat="35.754199" lon="-97.442826">
        <ele>327.27149</ele>
        <time>2024-07-20T08:24:59.000Z</time>
      </trkpt>
      <trkpt lat="35.753632" lon="-97.442824">
        <ele>325.592032</ele>
        <time>2024-07-20T08:25:05.000Z</time>
      </trkpt>
      <trkpt lat="35.753006" lon="-97.442816">
        <ele>324.274095</ele>
        <time>2024-07-20T08:25:12.000Z</time>
      </trkpt>
      <trkpt lat="35.752443" lon="-97.442786">
        <ele>323.801745</ele>
        <time>2024-07-20T08:25:18.000Z</time>
      </trkpt>
      <trkpt lat="35.751988" lon="-97.442771">
        <ele>323.419458</ele>
        <time>2024-07-20T08:25:23.000Z</time>
      </trkpt>
      <trkpt lat="35.751975" lon="-97.442765">
        <ele>323.412805</ele>
        <time>2024-07-20T08:25:23.000Z</time>
      </trkpt>
      <trkpt lat="35.751994" lon="-97.442777">
        <ele>323.406147</ele>
        <time>2024-07-20T08:25:23.000Z</time>
      </trkpt>
      <trkpt lat="35.752448" lon="-97.442794">
        <ele>323.023853</ele>
        <time>2024-07-20T08:25:28.000Z</time>
      </trkpt>
      <trkpt lat="35.753021" lon="-97.442818">
        <ele>324.226038</ele>
        <time>2024-07-20T08:25:34.000Z</time>
      </trkpt>
      <trkpt lat="35.753633" lon="-97.442813">
        <ele>325.809916</ele>
        <time>2024-07-20T08:25:41.000Z</time>
      </trkpt>
      <trkpt lat="35.7542" lon="-97.442833">
        <ele>327.313555</ele>
        <time>2024-07-20T08:25:47.000Z</time>
      </trkpt>
      <trkpt lat="35.755759" lon="-97.442824">
        <ele>330.707123</ele>
        <time>2024-07-20T08:26:04.000Z</time>
      </trkpt>
      <trkpt lat="35.757378" lon="-97.442807">
        <ele>331.314525</ele>
        <time>2024-07-20T08:26:22.000Z</time>
      </trkpt>
      <trkpt lat="35.757841" lon="-97.44279">
        <ele>331.256065</ele>
        <time>2024-07-20T08:26:27.000Z</time>
      </trkpt>
      <trkpt lat="35.760052" lon="-97.442791">
        <ele>330.727432</ele>
        <time>2024-07-20T08:26:52.000Z</time>
      </trkpt>
      <trkpt lat="35.761206" lon="-97.442818">
        <ele>331.545263</ele>
        <time>2024-07-20T08:27:05.000Z</time>
      </trkpt>
      <trkpt lat="35.761708" lon="-97.442826">
        <ele>331.718496</ele>
        <time>2024-07-20T08:27:11.000Z</time>
      </trkpt>
      <trkpt lat="35.762139" lon="-97.442821">
        <ele>331.600127</ele>
        <time>2024-07-20T08:27:16.000Z</time>
      </trkpt>
      <trkpt lat="35.762487" lon="-97.442823">
        <ele>331.502602</ele>
        <time>2024-07-20T08:27:20.000Z</time>
      </trkpt>
      <trkpt lat="35.763169" lon="-97.44284">
        <ele>331.31229</ele>
        <time>2024-07-20T08:27:28.000Z</time>
      </trkpt>
      <trkpt lat="35.766234" lon="-97.442944">
        <ele>327.511847</ele>
        <time>2024-07-20T08:28:02.000Z</time>
      </trkpt>
      <trkpt lat="35.766831" lon="-97.442961">
        <ele>326.996691</ele>
        <time>2024-07-20T08:28:09.000Z</time>
      </trkpt>
      <trkpt lat="35.76888" lon="-97.442912">
        <ele>327.87695</ele>
        <time>2024-07-20T08:28:32.000Z</time>
      </trkpt>
      <trkpt lat="35.772175" lon="-97.442904">
        <ele>326.124818</ele>
        <time>2024-07-20T08:29:09.000Z</time>
      </trkpt>
      <trkpt lat="35.772703" lon="-97.442905">
        <ele>325.264795</ele>
        <time>2024-07-20T08:29:15.000Z</time>
      </trkpt>
      <trkpt lat="35.772943" lon="-97.442904">
        <ele>324.803515</ele>
        <time>2024-07-20T08:29:18.000Z</time>
      </trkpt>
      <trkpt lat="35.773997" lon="-97.442937">
        <ele>322.776021</ele>
        <time>2024-07-20T08:29:30.000Z</time>
      </trkpt>
      <trkpt lat="35.775929" lon="-97.442867">
        <ele>325.164404</ele>
        <time>2024-07-20T08:29:51.000Z</time>
      </trkpt>
      <trkpt lat="35.77602" lon="-97.442867">
        <ele>325.406618</ele>
        <time>2024-07-20T08:29:52.000Z</time>
      </trkpt>
      <trkpt lat="35.777094" lon="-97.442889">
        <ele>328.458647</ele>
        <time>2024-07-20T08:30:04.000Z</time>
      </trkpt>
      <trkpt lat="35.777437" lon="-97.442904">
        <ele>329.458978</ele>
        <time>2024-07-20T08:30:08.000Z</time>
      </trkpt>
      <trkpt lat="35.77794" lon="-97.442905">
        <ele>330.231563</ele>
        <time>2024-07-20T08:30:14.000Z</time>
      </trkpt>
      <trkpt lat="35.78034" lon="-97.442886">
        <ele>330.307214</ele>
        <time>2024-07-20T08:30:41.000Z</time>
      </trkpt>
      <trkpt lat="35.781318" lon="-97.442889">
        <ele>330.211817</ele>
        <time>2024-07-20T08:30:52.000Z</time>
      </trkpt>
      <trkpt lat="35.783325" lon="-97.442886">
        <ele>329.407446</ele>
        <time>2024-07-20T08:31:14.000Z</time>
      </trkpt>
      <trkpt lat="35.785334" lon="-97.442879">
        <ele>326.586848</ele>
        <time>2024-07-20T08:31:36.000Z</time>
      </trkpt>
      <trkpt lat="35.789696" lon="-97.44291">
        <ele>330.811761</ele>
        <time>2024-07-20T08:32:25.000Z</time>
      </trkpt>
      <trkpt lat="35.789952" lon="-97.442905">
        <ele>331.115778</ele>
        <time>2024-07-20T08:32:28.000Z</time>
      </trkpt>
      <trkpt lat="35.791452" lon="-97.442917">
        <ele>331.985515</ele>
        <time>2024-07-20T08:32:45.000Z</time>
      </trkpt>
      <trkpt lat="35.792085" lon="-97.44293">
        <ele>332.222759</ele>
        <time>2024-07-20T08:32:52.000Z</time>
      </trkpt>
      <trkpt lat="35.792499" lon="-97.442911">
        <ele>332.132911</ele>
        <time>2024-07-20T08:32:57.000Z</time>
      </trkpt>
      <trkpt lat="35.795376" lon="-97.442862">
        <ele>331.904289</ele>
        <time>2024-07-20T08:33:29.000Z</time>
      </trkpt>
      <trkpt lat="35.795431" lon="-97.442854">
        <ele>331.907827</ele>
        <time>2024-07-20T08:33:30.000Z</time>
      </trkpt>
      <trkpt lat="35.796152" lon="-97.442868">
        <ele>332.309017</ele>
        <time>2024-07-20T08:33:38.000Z</time>
      </trkpt>
      <trkpt lat="35.79785" lon="-97.442872">
        <ele>333.268269</ele>
        <time>2024-07-20T08:33:57.000Z</time>
      </trkpt>
      <trkpt lat="35.799617" lon="-97.442877">
        <ele>332.170127</ele>
        <time>2024-07-20T08:34:17.000Z</time>
      </trkpt>
      <trkpt lat="35.802231" lon="-97.442938">
        <ele>327.834524</ele>
        <time>2024-07-20T08:34:46.000Z</time>
      </trkpt>
      <trkpt lat="35.802658" lon="-97.442951">
        <ele>327.088665</ele>
        <time>2024-07-20T08:34:51.000Z</time>
      </trkpt>
      <trkpt lat="35.80329" lon="-97.442963">
        <ele>325.78924</ele>
        <time>2024-07-20T08:34:58.000Z</time>
      </trkpt>
      <trkpt lat="35.804547" lon="-97.442996">
        <ele>323.041125</ele>
        <time>2024-07-20T08:35:12.000Z</time>
      </trkpt>
      <trkpt lat="35.804966" lon="-97.443024">
        <ele>322.014139</ele>
        <time>2024-07-20T08:35:17.000Z</time>
      </trkpt>
      <trkpt lat="35.806121" lon="-97.443026">
        <ele>319.120393</ele>
        <time>2024-07-20T08:35:30.000Z</time>
      </trkpt>
      <trkpt lat="35.808604" lon="-97.443112">
        <ele>312.403175</ele>
        <time>2024-07-20T08:35:58.000Z</time>
      </trkpt>
      <trkpt lat="35.810975" lon="-97.443164">
        <ele>306.307586</ele>
        <time>2024-07-20T08:36:24.000Z</time>
      </trkpt>
      <trkpt lat="35.811252" lon="-97.4427">
        <ele>305.38009</ele>
        <time>2024-07-20T08:36:29.000Z</time>
      </trkpt>
      <trkpt lat="35.812288" lon="-97.442379">
        <ele>304.080900359</ele>
        <time>2024-07-20T08:36:41.000Z</time>
      </trkpt>
      <trkpt lat="35.812429" lon="-97.442029">
        <ele>303.695448048</ele>
        <time>2024-07-20T08:36:45.000Z</time>
      </trkpt>
      <trkpt lat="35.812429" lon="-97.441667">
        <ele>303.33841027</ele>
        <time>2024-07-20T08:36:48.000Z</time>
      </trkpt>
      <trkpt lat="35.812427" lon="-97.441667">
        <ele>303.335977794</ele>
        <time>2024-07-20T08:36:48.000Z</time>
      </trkpt>
    </trkseg>
  </trk>
</gpx>

<!--
Performance optimized by W3 Total Cache. Learn more: https://www.boldgrid.com/w3-total-cache/?utm_source=w3tc&utm_medium=footer_comment&utm_campaign=free_plugin

Page Caching using Disk: Enhanced{w3tc_pagecache_reject_reason} 

Served from: www.aquabike.world @ 2026-05-10 21:34:40 by W3 Total Cache
-->